Time;durP1;ratioP1;P1;durP2;ratioP2;P2;SDS_P1;SDS_P2;PMS_P1;PMS_P2;Temp;Humidity;BMP_temperature;BMP_pressure;BME280_temperature;BME280_humidity;BME280_pressure;Samples;Min_cycle;Max_cycle;Signal;HPM_P1;HPM_P2
2023/11/02 00:02:20;;;;;;;1.15;0.43;;;21.30;48.80;;;;;;5078097;28;20347;-58
2023/11/02 00:04:48;;;;;;;0.90;0.38;;;21.20;48.80;;;;;;5077309;28;20036;-59
2023/11/02 00:07:14;;;;;;;0.93;0.40;;;21.20;48.80;;;;;;5075545;28;20028;-55
2023/11/02 00:09:40;;;;;;;0.47;0.30;;;21.20;48.80;;;;;;5069177;28;20082;-54
2023/11/02 00:12:11;;;;;;;0.60;0.30;;;21.20;48.80;;;;;;5070185;28;20051;-53
2023/11/02 00:14:52;;;;;;;0.47;0.40;;;21.20;48.80;;;;;;5056375;28;20115;-59
2023/11/02 00:17:31;;;;;;;1.40;0.38;;;21.20;48.80;;;;;;5076822;28;20029;-56
2023/11/02 00:19:58;;;;;;;0.95;0.35;;;21.20;49.30;;;;;;5074158;28;20078;-58
2023/11/02 00:22:27;;;;;;;1.38;0.40;;;21.20;48.80;;;;;;5068518;28;20435;-58
2023/11/02 00:25:03;;;;;;;0.63;0.30;;;21.20;48.80;;;;;;5067922;28;20495;-57
2023/11/02 00:27:31;;;;;;;0.47;0.30;;;21.20;48.80;;;;;;5071749;28;20032;-56
2023/11/02 00:29:57;;;;;;;0.68;0.35;;;21.20;48.70;;;;;;5074424;28;20029;-59
2023/11/02 00:32:23;;;;;;;1.35;0.38;;;21.20;48.70;;;;;;5053066;28;20086;-59
2023/11/02 00:34:49;;;;;;;1.25;0.43;;;21.10;48.60;;;;;;5067695;28;20098;-58
2023/11/02 00:37:15;;;;;;;0.88;0.38;;;21.10;48.60;;;;;;5067408;28;20051;-57
2023/11/02 00:39:41;;;;;;;0.60;0.30;;;21.10;48.60;;;;;;5075855;28;20058;-58
2023/11/02 00:42:07;;;;;;;0.60;0.35;;;21.10;48.60;;;;;;5053472;28;20051;-59
2023/11/02 00:44:36;;;;;;;0.63;0.30;;;21.10;48.60;;;;;;5064388;28;20051;-57
2023/11/02 00:47:04;;;;;;;0.55;0.28;;;21.10;48.60;;;;;;5077731;28;20043;-59
2023/11/02 00:49:37;;;;;;;0.63;0.40;;;21.10;48.60;;;;;;5075720;28;20062;-57
2023/11/02 00:52:05;;;;;;;0.75;0.25;;;21.10;48.60;;;;;;5047518;28;20036;-59
2023/11/02 00:54:47;;;;;;;0.82;0.45;;;21.10;48.60;;;;;;5067543;28;20032;-61
2023/11/02 00:57:15;;;;;;;0.63;0.10;;;21.10;48.50;;;;;;5072267;28;20403;-57
2023/11/02 00:59:44;;;;;;;0.40;0.20;;;21.10;48.60;;;;;;5075703;28;20028;-58
2023/11/02 01:02:10;;;;;;;0.43;0.30;;;21.10;48.50;;;;;;5049560;28;20024;-57
2023/11/02 01:04:49;;;;;;;0.75;0.38;;;21.00;48.50;;;;;;5065147;28;20041;-56
2023/11/02 01:07:16;;;;;;;0.47;0.32;;;21.10;48.50;;;;;;5052747;28;20115;-56
2023/11/02 01:09:47;;;;;;;0.73;0.35;;;21.10;48.50;;;;;;5069342;28;20021;-59
2023/11/02 01:12:16;;;;;;;0.80;0.30;;;21.00;48.40;;;;;;5051962;28;20374;-58
2023/11/02 01:14:48;;;;;;;0.68;0.20;;;21.00;48.40;;;;;;5073175;28;20104;-58
2023/11/02 01:17:35;;;;;;;0.45;0.40;;;21.10;48.50;;;;;;5074763;28;20036;-59
2023/11/02 01:20:39;;;;;;;1.45;0.35;;;21.00;48.30;;;;;;5076078;28;20052;-58
2023/11/02 01:23:14;;;;;;;0.70;0.50;;;21.00;48.30;;;;;;5066380;28;20444;-59
2023/11/02 01:25:43;;;;;;;1.27;0.47;;;21.00;48.30;;;;;;5067409;28;20034;-59
2023/11/02 01:28:14;;;;;;;2.78;0.40;;;21.00;48.30;;;;;;5076047;28;20055;-58
2023/11/02 01:30:40;;;;;;;0.20;0.20;;;21.00;48.30;;;;;;5044162;28;20025;-56
2023/11/02 01:33:34;;;;;;;0.93;0.40;;;21.00;48.30;;;;;;5069339;28;20031;-56
2023/11/02 01:36:01;;;;;;;1.08;0.32;;;21.00;48.20;;;;;;5066423;28;20043;-57
2023/11/02 01:38:27;;;;;;;1.77;0.60;;;20.90;48.20;;;;;;5067572;28;20075;-57
2023/11/02 01:41:15;;;;;;;0.65;0.30;;;20.90;48.20;;;;;;5065007;28;20062;-57
2023/11/02 01:44:07;;;;;;;1.58;0.40;;;20.90;48.10;;;;;;5069644;28;20040;-55
2023/11/02 01:46:39;;;;;;;0.28;0.28;;;20.90;48.20;;;;;;5070022;28;20466;-58
2023/11/02 01:49:27;;;;;;;0.95;0.40;;;20.90;48.20;;;;;;5057190;28;20068;-57
2023/11/02 01:52:08;;;;;;;0.60;0.30;;;21.00;48.20;;;;;;5061231;28;20132;-56
2023/11/02 01:54:56;;;;;;;0.65;0.38;;;20.90;48.10;;;;;;5053422;28;20033;-59
2023/11/02 01:58:03;;;;;;;0.30;0.20;;;20.90;48.10;;;;;;5084216;28;20071;-59
2023/11/02 02:01:00;;;;;;;0.50;0.35;;;20.90;48.10;;;;;;5060560;28;20433;-58
2023/11/02 02:03:49;;;;;;;0.50;0.28;;;20.90;48.10;;;;;;5025026;28;20048;-57
2023/11/02 02:06:41;;;;;;;0.57;0.20;;;20.90;48.10;;;;;;5069597;28;20112;-56
2023/11/02 02:09:16;;;;;;;0.63;0.30;;;20.90;48.20;;;;;;5054109;28;20044;-57
2023/11/02 02:11:41;;;;;;;0.43;0.30;;;20.90;48.10;;;;;;5052660;28;20028;-55
2023/11/02 02:14:55;;;;;;;0.47;0.25;;;20.90;48.10;;;;;;5058167;28;20090;-57
2023/11/02 02:17:41;;;;;;;0.85;0.30;;;20.90;48.10;;;;;;5069344;28;20167;-59
2023/11/02 02:20:09;;;;;;;0.85;0.40;;;20.80;48.10;;;;;;5059985;28;20033;-55
2023/11/02 02:22:40;;;;;;;0.30;0.20;;;20.80;48.10;;;;;;5053552;28;20036;-56
2023/11/02 02:25:27;;;;;;;0.80;0.20;;;20.90;48.20;;;;;;5048028;28;20028;-58
2023/11/02 02:28:11;;;;;;;0.80;0.40;;;20.90;48.10;;;;;;5073192;28;20132;-56
2023/11/02 02:30:48;;;;;;;0.45;0.30;;;20.80;48.10;;;;;;5066442;28;20025;-58
2023/11/02 02:33:41;;;;;;;0.60;0.30;;;20.80;48.10;;;;;;5069550;28;20020;-58
2023/11/02 02:36:39;;;;;;;0.30;0.20;;;20.80;48.10;;;;;;5077227;28;20032;-58
2023/11/02 02:39:09;;;;;;;0.32;0.28;;;20.80;48.10;;;;;;5077618;28;20040;-59
2023/11/02 02:41:41;;;;;;;0.93;0.20;;;20.80;48.10;;;;;;5060436;28;20103;-57
2023/11/02 02:44:11;;;;;;;0.73;0.30;;;20.80;48.10;;;;;;5056320;28;20055;-59
2023/11/02 02:46:39;;;;;;;0.73;0.28;;;20.80;48.10;;;;;;5052198;28;20031;-60
2023/11/02 02:49:08;;;;;;;0.65;0.30;;;20.80;48.10;;;;;;5075000;28;20055;-59
2023/11/02 02:51:44;;;;;;;0.30;0.30;;;20.80;48.10;;;;;;5049432;28;20028;-59
2023/11/02 02:54:12;;;;;;;0.68;0.38;;;20.80;48.10;;;;;;5052940;28;20170;-59
2023/11/02 02:56:41;;;;;;;0.50;0.22;;;20.80;48.10;;;;;;5066012;28;20060;-55
2023/11/02 02:59:09;;;;;;;0.75;0.40;;;20.80;48.10;;;;;;5045770;28;20039;-59
2023/11/02 03:01:40;;;;;;;0.82;0.20;;;20.70;48.00;;;;;;5067658;28;20016;-56
2023/11/02 03:04:19;;;;;;;0.25;0.20;;;20.80;48.00;;;;;;5076243;28;20060;-56
2023/11/02 03:06:57;;;;;;;0.35;0.20;;;20.80;48.00;;;;;;5070220;28;20048;-56
2023/11/02 03:09:28;;;;;;;0.77;0.30;;;20.80;48.00;;;;;;5074209;28;20040;-57
2023/11/02 03:11:57;;;;;;;0.65;0.20;;;20.70;48.00;;;;;;5047423;28;20086;-54
2023/11/02 03:14:25;;;;;;;1.60;0.35;;;20.80;48.10;;;;;;5070956;28;20025;-55
2023/11/02 03:16:54;;;;;;;0.70;0.30;;;20.70;48.00;;;;;;5071290;28;20110;-59
2023/11/02 03:19:48;;;;;;;0.98;0.45;;;20.70;48.00;;;;;;5058968;28;20036;-57
2023/11/02 03:22:20;;;;;;;0.43;0.22;;;20.70;47.90;;;;;;5066768;28;20482;-55
2023/11/02 03:25:24;;;;;;;0.77;0.30;;;20.70;48.00;;;;;;5076751;28;20406;-55
2023/11/02 03:27:53;;;;;;;0.45;0.20;;;20.70;47.90;;;;;;5067627;28;20371;-57
2023/11/02 03:30:49;;;;;;;0.60;0.35;;;20.70;48.00;;;;;;5070701;28;20452;-59
2023/11/02 03:33:33;;;;;;;0.40;0.20;;;20.70;47.90;;;;;;5029860;28;1188377;-55
2023/11/02 03:36:10;;;;;;;1.02;0.28;;;20.70;47.90;;;;;;5037066;28;20036;-58
2023/11/02 03:39:03;;;;;;;0.40;0.30;;;20.70;47.90;;;;;;5072344;28;20093;-59
2023/11/02 03:41:57;;;;;;;0.30;0.20;;;20.70;47.90;;;;;;5070818;28;20092;-58
2023/11/02 03:44:47;;;;;;;0.32;0.20;;;20.70;48.00;;;;;;5068237;28;20041;-59
2023/11/02 03:47:58;;;;;;;2.00;0.20;;;20.60;47.90;;;;;;5073817;28;20036;-59
2023/11/02 03:50:41;;;;;;;0.35;0.20;;;20.70;47.90;;;;;;5000879;28;20493;-59
2023/11/02 03:53:19;;;;;;;0.55;0.30;;;20.70;48.00;;;;;;4984804;28;20056;-59
2023/11/02 03:56:10;;;;;;;0.38;0.25;;;20.60;47.90;;;;;;5043755;28;20049;-55
2023/11/02 03:58:52;;;;;;;0.45;0.20;;;20.70;48.00;;;;;;5067472;28;20024;-59
2023/11/02 04:01:27;;;;;;;1.10;0.38;;;20.60;47.90;;;;;;5074404;28;20423;-58
2023/11/02 04:04:03;;;;;;;0.22;0.22;;;20.60;47.90;;;;;;5066962;28;20071;-60
2023/11/02 04:07:19;;;;;;;0.52;0.22;;;20.70;48.00;;;;;;5074867;28;20080;-59
2023/11/02 04:09:54;;;;;;;1.10;0.57;;;20.60;47.90;;;;;;4965970;28;20047;-60
2023/11/02 04:12:49;;;;;;;0.82;0.30;;;20.60;47.90;;;;;;5064755;28;20044;-58
2023/11/02 04:15:18;;;;;;;0.37;0.20;;;20.70;47.90;;;;;;5065443;28;20442;-58
2023/11/02 04:17:44;;;;;;;0.55;0.17;;;20.60;47.90;;;;;;5070909;28;20071;-57
2023/11/02 04:20:10;;;;;;;0.68;0.30;;;20.60;47.90;;;;;;5075837;28;20415;-58
2023/11/02 04:22:38;;;;;;;0.43;0.20;;;20.60;47.90;;;;;;5072577;28;20063;-59
2023/11/02 04:25:04;;;;;;;0.77;0.10;;;20.60;47.80;;;;;;5068038;28;20081;-58
2023/11/02 04:27:30;;;;;;;1.20;0.43;;;20.60;47.90;;;;;;5065485;28;20115;-59
2023/11/02 04:29:56;;;;;;;0.22;0.20;;;20.60;47.80;;;;;;5066844;28;20109;-58
2023/11/02 04:32:22;;;;;;;1.33;0.40;;;20.60;47.80;;;;;;5070595;28;20107;-59
2023/11/02 04:34:48;;;;;;;0.65;0.20;;;20.60;47.80;;;;;;5066338;28;20432;-58
2023/11/02 04:37:17;;;;;;;0.20;0.20;;;20.60;47.80;;;;;;5073467;28;20024;-55
2023/11/02 04:39:44;;;;;;;1.25;0.30;;;20.60;47.80;;;;;;5067111;28;20047;-57
2023/11/02 04:42:17;;;;;;;0.98;0.40;;;20.60;47.80;;;;;;5063587;28;20098;-58
2023/11/02 04:44:43;;;;;;;0.63;0.25;;;20.60;47.70;;;;;;5069337;28;20130;-56
2023/11/02 04:47:09;;;;;;;0.38;0.20;;;20.60;47.70;;;;;;5072010;28;20442;-58
2023/11/02 04:49:35;;;;;;;0.50;0.20;;;20.60;47.70;;;;;;5062215;28;20107;-58
2023/11/02 04:52:04;;;;;;;0.68;0.30;;;20.60;47.70;;;;;;5068463;28;20036;-57
2023/11/02 04:54:31;;;;;;;0.88;0.20;;;20.60;47.70;;;;;;5064652;28;20398;-58
2023/11/02 04:56:59;;;;;;;1.98;0.43;;;20.60;47.70;;;;;;5073365;28;20055;-59
2023/11/02 04:59:25;;;;;;;0.38;0.28;;;20.60;47.70;;;;;;5078300;28;20111;-55
2023/11/02 05:01:51;;;;;;;1.00;0.30;;;20.60;47.60;;;;;;5069073;28;20489;-58
2023/11/02 05:04:17;;;;;;;0.60;0.17;;;20.60;47.60;;;;;;5065403;28;20037;-58
2023/11/02 05:06:43;;;;;;;0.65;0.30;;;20.60;48.20;;;;;;5068896;28;20086;-56
2023/11/02 05:09:09;;;;;;;1.20;0.30;;;20.60;47.60;;;;;;5073116;28;20024;-59
2023/11/02 05:11:35;;;;;;;0.82;0.40;;;20.60;47.60;;;;;;5066676;28;20029;-59
2023/11/02 05:14:01;;;;;;;1.67;0.30;;;20.60;47.60;;;;;;5066760;28;20116;-57
2023/11/02 05:16:28;;;;;;;1.00;0.45;;;20.60;47.50;;;;;;5076111;28;20028;-56
2023/11/02 05:18:54;;;;;;;0.95;0.45;;;20.50;47.50;;;;;;5069730;28;20127;-57
2023/11/02 05:21:20;;;;;;;0.30;0.20;;;20.60;47.50;;;;;;5066836;28;20032;-55
2023/11/02 05:23:46;;;;;;;0.20;0.20;;;20.50;47.50;;;;;;5065944;28;20455;-58
2023/11/02 05:26:14;;;;;;;0.50;0.30;;;20.60;47.50;;;;;;5076133;28;20028;-60
2023/11/02 05:28:41;;;;;;;1.75;0.40;;;20.50;47.40;;;;;;5072270;28;20028;-59
2023/11/02 05:31:06;;;;;;;1.05;0.40;;;20.50;47.40;;;;;;5067174;28;20048;-57
2023/11/02 05:33:32;;;;;;;0.25;0.22;;;20.50;47.40;;;;;;5066874;28;20121;-58
2023/11/02 05:35:58;;;;;;;0.43;0.30;;;20.50;47.40;;;;;;5067270;28;20028;-56
2023/11/02 05:38:25;;;;;;;0.60;0.40;;;20.50;47.40;;;;;;5069964;28;20035;-59
2023/11/02 05:40:50;;;;;;;0.38;0.30;;;20.60;47.40;;;;;;5054906;28;20137;-60
2023/11/02 05:43:16;;;;;;;1.20;0.40;;;20.50;47.30;;;;;;5066780;28;20119;-57
2023/11/02 05:45:43;;;;;;;0.77;0.28;;;20.50;47.30;;;;;;5071185;28;20051;-56
2023/11/02 05:48:09;;;;;;;1.20;0.40;;;20.50;47.30;;;;;;5067085;28;20395;-57
2023/11/02 05:50:35;;;;;;;1.27;0.40;;;20.50;47.30;;;;;;5075551;28;20031;-60
2023/11/02 05:53:01;;;;;;;1.50;0.40;;;20.50;47.30;;;;;;5063165;28;20029;-54
2023/11/02 05:55:27;;;;;;;0.88;0.30;;;20.50;47.30;;;;;;5073834;28;20047;-59
2023/11/02 05:57:53;;;;;;;0.85;0.40;;;20.50;47.30;;;;;;5068824;28;20040;-55
2023/11/02 06:00:19;;;;;;;0.73;0.32;;;20.50;47.30;;;;;;5069567;28;20032;-58
2023/11/02 06:02:45;;;;;;;1.05;0.50;;;20.50;47.30;;;;;;5069017;28;20036;-58
2023/11/02 06:05:10;;;;;;;1.60;0.30;;;20.50;47.30;;;;;;5065224;28;20033;-56
2023/11/02 06:07:36;;;;;;;0.73;0.40;;;20.50;47.30;;;;;;5072038;28;20416;-59
2023/11/02 06:10:03;;;;;;;1.20;0.30;;;20.50;47.30;;;;;;5068791;28;20039;-56
2023/11/02 06:12:30;;;;;;;0.20;0.20;;;20.50;47.30;;;;;;5048914;28;20135;-56
2023/11/02 06:14:56;;;;;;;0.80;0.38;;;20.50;47.30;;;;;;5071350;28;20540;-60
2023/11/02 06:17:25;;;;;;;0.45;0.32;;;20.50;47.30;;;;;;5072012;28;20037;-60
2023/11/02 06:19:51;;;;;;;0.82;0.35;;;20.50;47.30;;;;;;5075717;28;20029;-58
2023/11/02 06:22:18;;;;;;;0.60;0.30;;;20.50;47.30;;;;;;5066195;28;20086;-55
2023/11/02 06:24:45;;;;;;;0.70;0.30;;;20.50;47.30;;;;;;5066885;28;20040;-58
2023/11/02 06:27:11;;;;;;;0.20;0.20;;;20.50;47.30;;;;;;5071790;28;20028;-59
2023/11/02 06:29:37;;;;;;;0.63;0.30;;;20.50;47.30;;;;;;5085291;28;20643;-57
2023/11/02 06:32:04;;;;;;;1.02;0.30;;;20.50;47.30;;;;;;5084731;28;20496;-58
2023/11/02 06:34:36;;;;;;;1.00;0.30;;;20.50;47.30;;;;;;5086853;28;20036;-58
2023/11/02 06:37:01;;;;;;;0.65;0.30;;;20.50;47.30;;;;;;5092702;28;20057;-56
2023/11/02 06:39:27;;;;;;;0.68;0.22;;;20.50;47.30;;;;;;5085956;28;20028;-55
2023/11/02 06:41:53;;;;;;;0.30;0.20;;;20.50;48.00;;;;;;5088826;28;20035;-58
2023/11/02 06:44:19;;;;;;;0.77;0.30;;;20.50;47.40;;;;;;5091021;28;20028;-55
2023/11/02 06:46:46;;;;;;;1.20;0.40;;;20.50;47.40;;;;;;5089733;28;20082;-59
2023/11/02 06:49:12;;;;;;;1.00;0.20;;;20.50;47.50;;;;;;5080487;28;20019;-59
2023/11/02 06:51:41;;;;;;;0.40;0.30;;;20.50;47.50;;;;;;5088478;28;20043;-58
2023/11/02 06:54:07;;;;;;;0.77;0.30;;;20.50;47.50;;;;;;5086157;28;20067;-58
2023/11/02 06:56:33;;;;;;;0.57;0.30;;;20.50;47.50;;;;;;5090932;28;20067;-59
2023/11/02 06:59:01;;;;;;;1.00;0.25;;;20.50;47.60;;;;;;5083491;28;20034;-58
2023/11/02 07:01:27;;;;;;;1.35;0.40;;;20.50;47.60;;;;;;5088575;28;20031;-57
2023/11/02 07:03:53;;;;;;;0.98;0.30;;;20.50;47.70;;;;;;5071687;28;20047;-56
2023/11/02 07:06:19;;;;;;;3.85;0.30;;;20.50;47.70;;;;;;5088372;28;20928;-59
2023/11/02 07:08:45;;;;;;;0.32;0.30;;;20.50;47.70;;;;;;5081194;28;20169;-57
2023/11/02 07:11:11;;;;;;;1.20;0.52;;;20.50;47.70;;;;;;5090635;28;20028;-59
2023/11/02 07:13:37;;;;;;;0.63;0.30;;;20.50;47.70;;;;;;5087575;28;20124;-58
2023/11/02 07:16:03;;;;;;;0.70;0.30;;;20.50;47.70;;;;;;5087352;28;20075;-59
2023/11/02 07:18:29;;;;;;;0.28;0.20;;;20.50;47.80;;;;;;5076420;28;20100;-58
2023/11/02 07:20:55;;;;;;;0.93;0.40;;;20.50;47.80;;;;;;5091533;28;20459;-57
2023/11/02 07:23:21;;;;;;;0.52;0.30;;;20.50;47.90;;;;;;5087318;28;20024;-58
2023/11/02 07:25:47;;;;;;;0.73;0.30;;;20.50;47.90;;;;;;5086428;28;20027;-58
2023/11/02 07:28:13;;;;;;;0.70;0.35;;;20.50;47.90;;;;;;5086146;28;20336;-58
2023/11/02 07:30:39;;;;;;;0.70;0.43;;;20.50;47.90;;;;;;5073246;28;20124;-59
2023/11/02 07:33:04;;;;;;;0.88;0.30;;;20.50;48.00;;;;;;5089857;28;20048;-58
2023/11/02 07:35:30;;;;;;;0.65;0.30;;;20.50;48.00;;;;;;5089508;28;20052;-58
2023/11/02 07:37:56;;;;;;;0.40;0.25;;;20.50;48.10;;;;;;5082897;28;20050;-58
2023/11/02 07:40:22;;;;;;;1.95;0.30;;;20.50;48.10;;;;;;5086996;28;20045;-56
2023/11/02 07:42:48;;;;;;;1.08;0.20;;;20.50;48.10;;;;;;5086255;28;20345;-58
2023/11/02 07:45:14;;;;;;;0.50;0.30;;;20.50;48.20;;;;;;5089081;28;20362;-58
2023/11/02 07:47:40;;;;;;;0.52;0.28;;;20.50;48.20;;;;;;5086388;28;20055;-59
2023/11/02 07:50:06;;;;;;;0.50;0.20;;;20.50;48.30;;;;;;5086842;28;20185;-59
2023/11/02 07:52:32;;;;;;;0.68;0.30;;;20.50;48.30;;;;;;5086442;28;20104;-59
2023/11/02 07:54:58;;;;;;;0.45;0.30;;;20.50;48.40;;;;;;5087879;28;20359;-58
2023/11/02 07:57:25;;;;;;;0.77;0.45;;;20.50;48.50;;;;;;5080840;28;20046;-55
2023/11/02 07:59:50;;;;;;;0.68;0.30;;;20.50;48.50;;;;;;5074783;28;20395;-58
2023/11/02 08:02:16;;;;;;;0.43;0.25;;;20.50;49.10;;;;;;5074040;28;20096;-55
2023/11/02 08:04:42;;;;;;;0.35;0.30;;;20.50;48.60;;;;;;5040916;28;20050;-58
2023/11/02 08:07:08;;;;;;;1.67;0.30;;;20.50;48.60;;;;;;5081868;28;20028;-59
2023/11/02 08:09:35;;;;;;;0.77;0.40;;;20.50;48.60;;;;;;5094628;28;20024;-55
2023/11/02 08:12:01;;;;;;;0.85;0.35;;;20.50;48.60;;;;;;5088227;28;20035;-57
2023/11/02 08:14:26;;;;;;;0.82;0.50;;;20.50;48.60;;;;;;5075245;28;20024;-58
2023/11/02 08:16:52;;;;;;;0.40;0.20;;;20.50;48.60;;;;;;5076719;28;20078;-58
2023/11/02 08:19:18;;;;;;;1.23;0.30;;;20.50;48.70;;;;;;5093199;28;20046;-57
2023/11/02 08:21:44;;;;;;;0.35;0.20;;;20.50;48.70;;;;;;5095502;28;20030;-55
2023/11/02 08:24:11;;;;;;;0.25;0.20;;;20.50;48.70;;;;;;5095328;28;20456;-57
2023/11/02 08:26:37;;;;;;;1.38;0.40;;;20.50;48.70;;;;;;5091010;28;20020;-59
2023/11/02 08:29:04;;;;;;;0.50;0.30;;;20.50;48.70;;;;;;5093804;28;20039;-56
2023/11/02 08:31:33;;;;;;;0.65;0.30;;;20.50;48.70;;;;;;5076639;28;20024;-56
2023/11/02 08:34:02;;;;;;;0.65;0.30;;;20.50;48.70;;;;;;5075656;28;20052;-60
2023/11/02 08:36:28;;;;;;;0.70;0.45;;;20.50;48.70;;;;;;5076148;28;20021;-58
2023/11/02 08:38:55;;;;;;;1.17;0.30;;;20.60;48.70;;;;;;5080034;28;20036;-59
2023/11/02 08:41:27;;;;;;;0.80;0.32;;;20.60;48.70;;;;;;5092427;28;20036;-58
2023/11/02 08:43:54;;;;;;;0.38;0.30;;;20.60;48.70;;;;;;5083954;28;20036;-60
2023/11/02 08:46:25;;;;;;;1.23;0.20;;;20.60;48.70;;;;;;5092371;28;20163;-59
2023/11/02 08:48:53;;;;;;;0.30;0.17;;;20.50;48.70;;;;;;5086239;28;20040;-55
2023/11/02 08:51:23;;;;;;;0.68;0.30;;;20.60;48.70;;;;;;5086621;28;20032;-57
2023/11/02 08:53:50;;;;;;;0.80;0.30;;;20.60;48.70;;;;;;5055131;28;20099;-59
2023/11/02 08:56:17;;;;;;;0.30;0.30;;;20.60;48.70;;;;;;5063829;28;20017;-60
2023/11/02 08:58:44;;;;;;;0.40;0.30;;;20.60;48.70;;;;;;5068441;28;20031;-58
2023/11/02 09:01:12;;;;;;;0.68;0.20;;;20.60;48.70;;;;;;5094500;28;20020;-55
2023/11/02 09:03:39;;;;;;;0.57;0.28;;;20.60;48.70;;;;;;5094398;28;20093;-57
2023/11/02 09:06:06;;;;;;;0.88;0.43;;;20.60;48.70;;;;;;5092172;28;20454;-52
2023/11/02 09:08:34;;;;;;;0.93;0.40;;;20.60;48.70;;;;;;5089581;28;20032;-58
2023/11/02 09:11:00;;;;;;;1.23;0.40;;;20.60;48.70;;;;;;5078994;28;20454;-58
2023/11/02 09:13:26;;;;;;;0.88;0.40;;;20.60;48.70;;;;;;5073249;28;20392;-57
2023/11/02 09:15:53;;;;;;;0.65;0.30;;;20.60;48.80;;;;;;5074836;28;20115;-57
2023/11/02 09:18:20;;;;;;;0.65;0.20;;;20.60;48.70;;;;;;5066862;28;20020;-59
2023/11/02 09:20:46;;;;;;;1.25;0.20;;;20.60;48.80;;;;;;5086182;28;20098;-55
2023/11/02 09:23:12;;;;;;;1.92;0.70;;;20.60;48.80;;;;;;5075100;28;20032;-57
2023/11/02 09:25:38;;;;;;;0.98;0.45;;;20.50;48.70;;;;;;5080903;28;20101;-54
2023/11/02 09:28:04;;;;;;;1.15;0.50;;;20.60;48.70;;;;;;5079024;28;20052;-60
2023/11/02 09:30:30;;;;;;;2.45;0.40;;;20.60;48.70;;;;;;5074850;28;20041;-58
2023/11/02 09:32:56;;;;;;;1.42;0.50;;;20.60;48.70;;;;;;5080130;28;20028;-54
2023/11/02 09:35:22;;;;;;;0.70;0.50;;;20.50;48.70;;;;;;5089478;28;20032;-55
2023/11/02 09:37:48;;;;;;;1.52;0.47;;;20.50;48.70;;;;;;5084998;28;20393;-61
2023/11/02 09:40:14;;;;;;;0.73;0.40;;;20.50;48.70;;;;;;5084318;28;20029;-59
2023/11/02 09:42:40;;;;;;;1.30;0.40;;;20.50;48.60;;;;;;5078214;28;20340;-58
2023/11/02 09:45:07;;;;;;;0.25;0.20;;;20.50;48.60;;;;;;5086944;28;20041;-58
2023/11/02 09:47:33;;;;;;;0.85;0.35;;;20.60;48.70;;;;;;5083448;28;20024;-59
2023/11/02 09:49:59;;;;;;;0.22;0.22;;;20.50;48.60;;;;;;5083577;28;20027;-58
2023/11/02 09:52:25;;;;;;;1.25;0.40;;;20.50;48.60;;;;;;5080195;28;20166;-56
2023/11/02 09:54:51;;;;;;;0.38;0.28;;;20.60;48.60;;;;;;5084315;28;20020;-58
2023/11/02 09:57:18;;;;;;;1.20;0.20;;;20.50;48.60;;;;;;5077366;28;20183;-53
2023/11/02 09:59:46;;;;;;;2.03;0.50;;;20.60;48.60;;;;;;5077053;28;20032;-54
2023/11/02 10:02:13;;;;;;;1.52;0.50;;;20.60;48.50;;;;;;5075108;28;20379;-51
2023/11/02 10:04:39;;;;;;;0.63;0.38;;;20.60;48.50;;;;;;5087020;28;20423;-55
2023/11/02 10:07:05;;;;;;;1.00;0.30;;;20.60;48.50;;;;;;5071929;28;20034;-59
2023/11/02 10:09:32;;;;;;;0.60;0.30;;;20.60;48.50;;;;;;5073793;28;20028;-55
2023/11/02 10:11:58;;;;;;;0.47;0.35;;;20.60;48.40;;;;;;5086147;28;20024;-54
2023/11/02 10:14:23;;;;;;;0.70;0.40;;;20.60;48.20;;;;;;5089444;28;20027;-56
2023/11/02 10:16:50;;;;;;;1.50;0.40;;;20.60;48.10;;;;;;5086789;28;20339;-58
2023/11/02 10:19:16;;;;;;;1.50;0.43;;;20.60;48.00;;;;;;5085465;28;20111;-58
2023/11/02 10:21:42;;;;;;;0.93;0.32;;;20.60;48.00;;;;;;5090601;28;20545;-57
2023/11/02 10:24:08;;;;;;;1.40;0.35;;;20.60;47.90;;;;;;5091294;28;20032;-56
2023/11/02 10:26:34;;;;;;;0.93;0.40;;;20.60;47.70;;;;;;5055115;28;20413;-57
2023/11/02 10:29:05;;;;;;;0.40;0.35;;;20.60;47.60;;;;;;5085656;28;20024;-56
2023/11/02 10:31:33;;;;;;;2.38;0.47;;;20.70;47.60;;;;;;5094192;28;20028;-56
2023/11/02 10:34:00;;;;;;;0.98;0.47;;;20.60;47.40;;;;;;5078194;28;20045;-59
2023/11/02 10:36:26;;;;;;;0.70;0.40;;;20.60;47.30;;;;;;5085848;28;20020;-52
2023/11/02 10:38:52;;;;;;;1.05;0.40;;;20.60;47.20;;;;;;5087654;28;20046;-57
2023/11/02 10:41:18;;;;;;;0.75;0.38;;;20.70;47.20;;;;;;5083618;28;20077;-56
2023/11/02 10:43:46;;;;;;;0.93;0.35;;;20.70;47.10;;;;;;5093123;28;20036;-57
2023/11/02 10:46:13;;;;;;;1.15;0.50;;;20.70;47.00;;;;;;5092610;28;20032;-55
2023/11/02 10:48:42;;;;;;;1.02;0.40;;;20.70;47.00;;;;;;5083787;28;20062;-54
2023/11/02 10:51:16;;;;;;;1.75;0.70;;;20.70;46.90;;;;;;5081447;28;20085;-58
2023/11/02 10:53:49;;;;;;;1.65;0.40;;;20.70;46.90;;;;;;5090476;28;20115;-57
2023/11/02 10:56:24;;;;;;;1.23;0.47;;;20.70;46.90;;;;;;5088385;28;20024;-54
2023/11/02 10:58:51;;;;;;;1.50;0.43;;;20.70;46.80;;;;;;5089115;28;20111;-53
2023/11/02 11:01:19;;;;;;;4.05;1.00;;;20.70;46.80;;;;;;5085351;28;20031;-57
2023/11/02 11:03:49;;;;;;;1.58;0.55;;;20.70;46.70;;;;;;5085508;28;20127;-57
2023/11/02 11:06:16;;;;;;;0.90;0.43;;;20.70;46.60;;;;;;5089886;28;20028;-57
2023/11/02 11:08:43;;;;;;;1.25;0.50;;;20.70;46.50;;;;;;5086888;28;20042;-58
2023/11/02 11:11:11;;;;;;;0.77;0.35;;;20.70;46.50;;;;;;5089111;28;20123;-55
2023/11/02 11:13:40;;;;;;;1.95;0.40;;;20.70;46.30;;;;;;5083517;28;20451;-53
2023/11/02 11:16:07;;;;;;;2.10;0.63;;;20.80;46.30;;;;;;5086446;28;20028;-58
2023/11/02 11:18:35;;;;;;;1.30;0.32;;;20.80;46.10;;;;;;5059450;28;20052;-55
2023/11/02 11:21:05;;;;;;;0.50;0.35;;;20.80;46.20;;;;;;5085231;28;20438;-57
2023/11/02 11:23:44;;;;;;;1.90;0.63;;;20.80;46.10;;;;;;5086981;28;20447;-56
2023/11/02 11:26:11;;;;;;;0.98;0.43;;;20.80;46.10;;;;;;5082445;28;20107;-58
2023/11/02 11:28:38;;;;;;;1.08;0.30;;;20.80;46.00;;;;;;5091836;28;20024;-59
2023/11/02 11:31:05;;;;;;;1.38;0.43;;;20.80;45.90;;;;;;5065027;28;20028;-58
2023/11/02 11:33:50;;;;;;;1.27;0.50;;;20.80;45.80;;;;;;5087319;28;20087;-58
2023/11/02 11:36:22;;;;;;;;;;;20.80;45.70;;;;;;5083443;28;20024;-58
2023/11/02 11:38:49;;;;;;;1.02;0.50;;;20.80;45.80;;;;;;5090270;28;19908;-59
2023/11/02 11:41:43;;;;;;;0.93;0.50;;;20.80;45.80;;;;;;5090896;28;20401;-52
2023/11/02 11:44:17;;;;;;;1.42;0.28;;;20.80;45.60;;;;;;5089364;28;20119;-56
2023/11/02 11:46:50;;;;;;;0.95;0.32;;;20.80;45.50;;;;;;5082309;28;20091;-58
2023/11/02 11:49:39;;;;;;;1.17;0.50;;;20.80;45.50;;;;;;5081429;28;20039;-53
2023/11/02 11:52:27;;;;;;;1.80;0.50;;;20.80;45.40;;;;;;5078796;28;20027;-57
2023/11/02 11:54:54;;;;;;;3.88;0.40;;;20.90;45.40;;;;;;5090754;28;20529;-58
2023/11/02 11:57:54;;;;;;;1.65;0.30;;;20.80;45.40;;;;;;5091078;28;20020;-56
2023/11/02 12:00:21;;;;;;;1.20;0.38;;;20.90;45.40;;;;;;5085022;28;20589;-56
2023/11/02 12:02:52;;;;;;;0.82;0.40;;;20.90;45.40;;;;;;5067070;28;20335;-57
2023/11/02 12:05:43;;;;;;;2.22;0.68;;;20.90;45.30;;;;;;5087804;28;20028;-56
2023/11/02 12:08:12;;;;;;;3.03;0.40;;;20.90;45.20;;;;;;5079212;28;20016;-58
2023/11/02 12:10:46;;;;;;;1.52;0.50;;;20.90;45.20;;;;;;5087500;28;20106;-56
2023/11/02 12:13:15;;;;;;;1.73;0.40;;;20.90;45.20;;;;;;5086591;28;20081;-57
2023/11/02 12:15:57;;;;;;;1.55;0.55;;;20.90;45.20;;;;;;5083715;28;20282;-57
2023/11/02 12:18:23;;;;;;;13.00;4.07;;;20.90;45.30;;;;;;5075609;28;20033;-58
2023/11/02 12:20:49;;;;;;;8.82;2.90;;;20.90;45.60;;;;;;5075508;28;20055;-57
2023/11/02 12:23:15;;;;;;;9.75;2.55;;;20.90;45.70;;;;;;5079379;28;20655;-55
2023/11/02 12:25:41;;;;;;;6.55;2.17;;;20.90;45.80;;;;;;5079907;28;20028;-56
2023/11/02 12:28:13;;;;;;;6.50;2.25;;;20.90;45.80;;;;;;5071704;28;20028;-57
2023/11/02 12:30:46;;;;;;;7.30;2.38;;;20.90;45.80;;;;;;5067621;28;20040;-59
2023/11/02 12:33:22;;;;;;;4.43;1.20;;;21.00;45.80;;;;;;5090971;28;20103;-57
2023/11/02 12:35:54;;;;;;;3.65;1.33;;;21.00;45.70;;;;;;5079754;28;20056;-58
2023/11/02 12:38:35;;;;;;;3.72;1.10;;;21.00;45.70;;;;;;5072674;28;20032;-57
2023/11/02 12:41:04;;;;;;;3.08;0.90;;;21.00;45.50;;;;;;5073433;28;20484;-57
2023/11/02 12:43:33;;;;;;;3.00;1.00;;;21.00;45.50;;;;;;5072754;28;20021;-53
2023/11/02 12:46:09;;;;;;;4.03;1.42;;;21.00;45.40;;;;;;5073602;28;20107;-55
2023/11/02 12:48:37;;;;;;;3.65;1.35;;;21.00;45.30;;;;;;5071596;28;20138;-58
2023/11/02 12:51:15;;;;;;;2.38;0.75;;;21.00;45.30;;;;;;5071542;28;20435;-56
2023/11/02 12:53:42;;;;;;;3.40;0.80;;;21.00;45.20;;;;;;5073904;28;20037;-58
2023/11/02 12:56:17;;;;;;;2.47;0.90;;;21.00;45.10;;;;;;5065243;28;20058;-56
2023/11/02 12:58:43;;;;;;;2.00;0.75;;;21.00;45.00;;;;;;5083998;28;20044;-51
2023/11/02 13:01:09;;;;;;;4.55;0.88;;;21.00;44.90;;;;;;5083457;28;20111;-58
2023/11/02 13:03:35;;;;;;;2.75;0.60;;;21.00;44.90;;;;;;5087283;28;20036;-54
2023/11/02 13:06:03;;;;;;;3.55;0.77;;;21.00;44.80;;;;;;5085639;28;20059;-55
2023/11/02 13:08:29;;;;;;;2.58;0.63;;;21.00;44.70;;;;;;5081861;28;20046;-56